Time;durP1;ratioP1;P1;durP2;ratioP2;P2;SDS_P1;SDS_P2;PMS_P1;PMS_P2;Temp;Humidity;BMP_temperature;BMP_pressure;BME280_temperature;BME280_humidity;BME280_pressure;Samples;Min_cycle;Max_cycle;Signal;HPM_P1;HPM_P2
2023/06/12 03:47:41;;;;;;;6.00;5.43;;;;;;;16.96;53.78;98827.59;4950723;28;43260;-76
2023/06/12 03:50:11;;;;;;;5.90;5.37;;;;;;;17.00;54.78;98831.69;4919387;28;42317;-76
2023/06/12 03:52:39;;;;;;;6.17;5.67;;;;;;;17.06;54.68;98830.31;4920363;28;40994;-77
2023/06/12 03:55:07;;;;;;;7.70;7.00;;;;;;;17.13;54.48;98829.63;4954140;28;42523;-76
2023/06/12 03:57:36;;;;;;;6.30;5.70;;;;;;;17.11;54.22;98826.22;4922236;28;43776;-76
2023/06/12 04:00:05;;;;;;;6.03;5.53;;;;;;;17.21;53.80;98832.44;4937845;28;42312;-77
2023/06/12 04:02:45;;;;;;;5.37;4.87;;;;;;;17.34;53.49;98845.56;4937808;28;40694;-77
2023/06/12 04:05:20;;;;;;;7.40;6.23;;;;;;;17.37;54.49;98839.09;4935080;28;41953;-76
2023/06/12 04:07:48;;;;;;;6.40;5.80;;;;;;;17.45;54.30;98850.78;4955078;28;43503;-77
2023/06/12 04:10:17;;;;;;;7.93;5.93;;;;;;;17.49;54.20;98844.19;4937462;28;42430;-76
2023/06/12 04:12:45;;;;;;;6.70;6.10;;;;;;;17.60;54.42;98849.41;4906183;28;41561;-77
2023/06/12 04:15:12;;;;;;;6.33;5.73;;;;;;;17.67;53.79;98854.25;4937418;28;41202;-76
2023/06/12 04:17:40;;;;;;;6.77;6.07;;;;;;;17.74;53.96;98850.84;4937772;28;43810;-76
2023/06/12 04:20:13;;;;;;;6.23;5.73;;;;;;;17.81;53.77;98865.34;4921523;28;42635;-74
2023/06/12 04:22:41;;;;;;;6.33;5.83;;;;;;;17.83;54.04;98857.19;4934820;28;41015;-74
2023/06/12 04:25:10;;;;;;;7.00;5.60;;;;;;;17.96;54.06;98868.47;4937501;28;41644;-74
2023/06/12 04:27:41;;;;;;;6.83;6.23;;;;;;;18.00;53.97;98859.16;4937325;28;42822;-73
2023/06/12 04:30:10;;;;;;;6.37;5.77;;;;;;;18.12;54.12;98871.41;4937268;28;43749;-74
2023/06/12 04:32:37;;;;;;;6.80;6.20;;;;;;;18.19;53.58;98869.00;4937796;28;41042;-73
2023/06/12 04:35:06;;;;;;;5.77;5.13;;;;;;;18.27;53.58;98878.03;4921979;28;41626;-73
2023/06/12 04:37:37;;;;;;;7.33;6.50;;;;;;;18.33;53.74;98871.22;4938102;28;42814;-73
2023/06/12 04:40:05;;;;;;;6.63;6.03;;;;;;;18.42;53.71;98869.53;4937986;28;42896;-75
2023/06/12 04:42:33;;;;;;;7.07;6.37;;;;;;;18.49;53.79;98871.47;4938098;28;41339;-73
2023/06/12 04:45:01;;;;;;;6.80;6.20;;;;;;;18.58;53.48;98867.09;4922078;28;43059;-73
2023/06/12 04:47:30;;;;;;;6.77;6.17;;;;;;;18.67;53.50;98871.59;4921962;28;41566;-73
2023/06/12 04:49:59;;;;;;;6.93;6.33;;;;;;;18.76;53.58;98872.56;4921982;28;41970;-74
2023/06/12 04:52:27;;;;;;;6.70;6.10;;;;;;;18.84;53.37;98872.66;4937806;28;39621;-73
2023/06/12 04:54:59;;;;;;;7.90;6.63;;;;;;;18.92;53.25;98878.13;4921259;28;41885;-73
2023/06/12 04:57:27;;;;;;;6.50;5.90;;;;;;;19.02;52.67;98878.94;4936927;28;42731;-74
2023/06/12 04:59:55;;;;;;;7.60;6.40;;;;;;;19.10;52.38;98883.56;4920888;28;41345;-73
2023/06/12 05:02:23;;;;;;;6.27;5.73;;;;;;;19.20;52.29;98887.88;4936594;28;39894;-74
2023/06/12 05:04:50;;;;;;;6.73;6.10;;;;;;;19.31;52.68;98889.50;4936368;28;40674;-73
2023/06/12 05:07:19;;;;;;;5.60;5.20;;;;;;;19.41;52.14;98890.28;4920699;28;42025;-74
2023/06/12 05:09:50;;;;;;;6.70;6.10;;;;;;;19.51;52.10;98891.13;4933807;28;42372;-73
2023/06/12 05:12:19;;;;;;;6.37;5.77;;;;;;;19.62;51.62;98892.75;4920831;28;38881;-74
2023/06/12 05:14:47;;;;;;;6.20;5.60;;;;;;;19.73;51.55;98885.31;4936734;28;42685;-74
2023/06/12 05:17:16;;;;;;;7.00;6.30;;;;;;;19.86;51.56;98901.06;4936487;28;43556;-74
2023/06/12 05:19:44;;;;;;;6.97;5.83;;;;;;;19.96;52.04;98895.59;4920667;28;41419;-76
2023/06/12 05:22:12;;;;;;;6.30;5.53;;;;;;;20.06;51.18;98907.13;4920516;28;40019;-77
2023/06/12 05:24:40;;;;;;;6.20;5.63;;;;;;;20.16;51.09;98907.88;4920707;28;40857;-77
2023/06/12 05:27:08;;;;;;;6.43;5.83;;;;;;;20.28;51.10;98911.16;4953510;28;42798;-74
2023/06/12 05:29:37;;;;;;;6.77;6.17;;;;;;;20.39;50.94;98914.50;4936031;28;43198;-75
2023/06/12 05:32:06;;;;;;;7.30;6.60;;;;;;;20.51;50.46;98911.56;4953726;28;40866;-74
2023/06/12 05:34:35;;;;;;;6.33;5.83;;;;;;;20.58;50.92;98912.59;4921332;28;41790;-75
2023/06/12 05:37:03;;;;;;;6.60;6.10;;;;;;;20.73;50.19;98911.03;4936997;28;43058;-75
2023/06/12 05:39:31;;;;;;;6.60;6.00;;;;;;;20.84;50.33;98921.53;4937435;28;43496;-74
2023/06/12 05:42:00;;;;;;;6.63;6.03;;;;;;;20.97;50.12;98907.63;4936515;28;39964;-75
2023/06/12 05:44:27;;;;;;;6.73;6.13;;;;;;;21.06;49.30;98918.28;4921100;28;40615;-75
2023/06/12 05:46:57;;;;;;;6.00;5.40;;;;;;;21.17;49.01;98920.69;4936292;28;42716;-75
2023/06/12 05:49:24;;;;;;;7.07;6.47;;;;;;;21.33;48.67;98913.72;4936909;28;40920;-75
2023/06/12 05:51:52;;;;;;;6.27;5.73;;;;;;;21.44;48.67;98911.56;4920982;28;39332;-75
2023/06/12 05:54:19;;;;;;;6.83;6.07;;;;;;;21.59;48.77;98908.25;4954093;28;42745;-75
2023/06/12 05:56:48;;;;;;;6.63;6.03;;;;;;;21.69;47.91;98909.78;4921042;28;42857;-75
2023/06/12 05:59:16;;;;;;;7.90;6.30;;;;;;;21.88;48.18;98913.22;4921073;28;41303;-75
2023/06/12 06:01:44;;;;;;;8.67;6.27;;;;;;;21.93;47.33;98922.47;4935731;28;39671;-76
2023/06/12 06:04:13;;;;;;;7.07;6.47;;;;;;;22.04;47.12;98918.63;4953032;28;41921;-76
2023/06/12 06:06:41;;;;;;;7.10;6.40;;;;;;;22.14;46.87;98925.56;4919679;28;42847;-75
2023/06/12 06:09:12;;;;;;;6.77;6.27;;;;;;;22.22;46.74;98922.03;4932957;28;42363;-73
2023/06/12 06:11:39;;;;;;;7.17;6.57;;;;;;;22.37;47.00;98925.75;4935674;28;39971;-74
2023/06/12 06:14:07;;;;;;;7.67;6.90;;;;;;;22.47;46.78;98925.56;4935598;28;40693;-74
2023/06/12 06:16:36;;;;;;;7.87;7.03;;;;;;;22.57;46.37;98927.06;4934789;28;43032;-74
2023/06/12 06:19:05;;;;;;;6.90;6.20;;;;;;;22.63;46.42;98911.19;4935582;28;43187;-74
2023/06/12 06:21:35;;;;;;;6.63;6.00;;;;;;;22.87;46.25;98928.22;4919456;28;41282;-74
2023/06/12 06:24:04;;;;;;;6.83;5.97;;;;;;;22.95;45.54;98918.44;4932781;28;41816;-74
2023/06/12 06:26:32;;;;;;;6.40;5.80;;;;;;;23.20;45.62;98928.16;4935355;28;43839;-74
2023/06/12 06:29:01;;;;;;;6.30;5.80;;;;;;;23.38;45.89;98933.28;4935393;28;43122;-74
2023/06/12 06:31:30;;;;;;;6.97;6.37;;;;;;;23.54;44.99;98935.97;4919699;28;38667;-74
2023/06/12 06:33:57;;;;;;;7.00;5.87;;;;;;;23.56;44.62;98928.53;4936504;28;41825;-74
2023/06/12 06:36:25;;;;;;;7.00;6.10;;;;;;;23.77;43.76;98947.69;4920062;28;41698;-74
2023/06/12 06:38:55;;;;;;;6.60;6.00;;;;;;;23.93;43.37;98953.00;4936431;28;43454;-75
2023/06/12 06:41:23;;;;;;;6.90;6.17;;;;;;;24.25;43.41;98961.94;4936663;28;40591;-74
2023/06/12 06:43:51;;;;;;;6.33;5.73;;;;;;;24.45;42.09;98965.88;4919336;28;42018;-74
2023/06/12 06:46:21;;;;;;;7.10;6.50;;;;;;;24.66;42.04;98968.72;4935411;28;42746;-74
2023/06/12 06:48:49;;;;;;;6.97;6.27;;;;;;;24.78;41.53;98971.84;4920112;28;42643;-75
2023/06/12 06:51:17;;;;;;;6.37;5.70;;;;;;;24.86;41.25;98976.31;4920112;28;38469;-75
2023/06/12 06:53:45;;;;;;;6.50;5.90;;;;;;;24.90;41.43;98972.22;4936257;28;41667;-75
2023/06/12 06:56:14;;;;;;;6.03;5.53;;;;;;;24.95;41.70;98967.16;4919984;28;42825;-75
2023/06/12 06:58:42;;;;;;;6.80;6.17;;;;;;;25.02;40.83;98977.03;4936103;28;43406;-75
2023/06/12 07:01:09;;;;;;;7.73;6.53;;;;;;;25.08;40.59;98975.47;4952501;28;39928;-75
2023/06/12 07:03:37;;;;;;;6.37;5.77;;;;;;;25.24;40.57;98983.41;4918671;28;40643;-75
2023/06/12 07:06:06;;;;;;;7.37;6.67;;;;;;;25.38;41.14;98971.72;4935012;28;43248;-75
2023/06/12 07:08:33;;;;;;;6.30;5.80;;;;;;;25.59;41.30;98970.97;4934755;28;42268;-75
2023/06/12 07:11:01;;;;;;;5.57;5.13;;;;;;;25.76;40.68;98968.91;4934961;28;40791;-75
2023/06/12 07:13:31;;;;;;;6.60;6.00;;;;;;;25.91;40.44;98964.31;4918968;28;41876;-75
2023/06/12 07:15:59;;;;;;;7.10;6.40;;;;;;;26.03;39.30;98975.50;4934861;28;42809;-75
2023/06/12 07:18:27;;;;;;;6.30;5.70;;;;;;;26.13;39.05;98968.72;4934939;28;42240;-75
2023/06/12 07:20:55;;;;;;;6.20;5.60;;;;;;;26.32;39.79;98980.03;4934710;28;40958;-75
2023/06/12 07:23:23;;;;;;;7.30;6.03;;;;;;;26.47;39.39;98969.94;4935024;28;41706;-75
2023/06/12 07:25:51;;;;;;;8.00;5.90;;;;;;;26.67;39.25;98972.84;4934705;28;43590;-75
2023/06/12 07:28:19;;;;;;;8.03;6.13;;;;;;;26.88;37.87;98982.81;4936669;28;42890;-76
2023/06/12 07:30:48;;;;;;;7.07;6.40;;;;;;;27.09;36.71;98983.66;4937436;28;39142;-75
2023/06/12 07:33:16;;;;;;;6.73;6.13;;;;;;;27.59;36.49;98994.44;4937984;28;40674;-75
2023/06/12 07:35:45;;;;;;;6.17;5.60;;;;;;;28.26;35.84;98996.41;4922479;28;42096;-75
2023/06/12 07:38:13;;;;;;;5.83;5.33;;;;;;;28.63;34.83;98998.59;4923359;28;42047;-75
2023/06/12 07:40:41;;;;;;;6.63;6.07;;;;;;;28.70;34.09;99004.88;4938716;28;39956;-75
2023/06/12 07:43:09;;;;;;;6.70;6.07;;;;;;;28.73;34.35;99001.72;4922571;28;41327;-75
2023/06/12 07:45:37;;;;;;;6.90;6.20;;;;;;;28.72;34.37;99002.78;4922528;28;44373;-75
2023/06/12 07:48:07;;;;;;;6.03;5.63;;;;;;;28.98;34.59;99006.59;4938982;28;43015;-75
2023/06/12 07:50:39;;;;;;;6.30;5.80;;;;;;;29.68;32.91;99011.31;4923026;28;38985;-74
2023/06/12 07:53:07;;;;;;;6.70;6.00;;;;;;;31.01;31.36;99018.63;4923041;28;40528;-75
2023/06/12 07:55:35;;;;;;;6.50;5.93;;;;;;;31.85;29.27;99028.16;4921641;28;42996;-74
2023/06/12 07:58:03;;;;;;;7.37;6.67;;;;;;;33.09;28.24;99030.22;4937369;28;41915;-75
2023/06/12 08:00:32;;;;;;;6.60;5.90;;;;;;;34.19;26.76;99037.69;4921774;28;41666;-75
2023/06/12 08:03:02;;;;;;;6.15;5.65;;;;;;;35.27;25.60;99043.03;4921917;28;41043;-75
2023/06/12 08:05:38;;;;;;;6.53;5.93;;;;;;;36.34;24.61;99041.81;4921452;28;41676;-75
2023/06/12 08:08:12;;;;;;;6.03;5.63;;;;;;;37.36;23.56;99038.94;4934949;28;43254;-75
2023/06/12 08:10:40;;;;;;;6.28;5.78;;;;;;;38.48;22.81;99045.06;4937563;28;40025;-75
2023/06/12 08:13:07;;;;;;;6.45;5.95;;;;;;;39.46;21.96;99040.22;4937901;28;41770;-76
2023/06/12 08:15:36;;;;;;;5.95;5.45;;;;;;;40.36;21.42;99040.25;4921361;28;42893;-75
2023/06/12 08:18:05;;;;;;;6.18;5.57;;;;;;;41.17;20.06;99041.72;4921583;28;42166;-75
2023/06/12 08:20:33;;;;;;;6.45;5.85;;;;;;;41.68;19.51;99030.09;4921404;28;39931;-75
2023/06/12 08:23:04;;;;;;;5.70;5.30;;;;;;;41.92;19.35;99039.28;4937332;28;42670;-75
2023/06/12 08:25:32;;;;;;;5.78;5.38;;;;;;;41.56;18.39;99047.19;4921207;28;42791;-76
2023/06/12 08:28:00;;;;;;;5.63;5.13;;;;;;;41.07;18.60;99041.75;4921442;28;41109;-75
2023/06/12 08:30:28;;;;;;;5.60;5.20;;;;;;;40.90;19.32;99037.44;4920984;28;40078;-76
2023/06/12 08:32:57;;;;;;;5.78;5.28;;;;;;;40.68;19.25;99034.22;4937890;28;41909;-75
2023/06/12 08:35:24;;;;;;;5.40;4.70;;;;;;;40.25;19.20;99037.78;4938076;28;42710;-75
2023/06/12 08:37:52;;;;;;;6.53;5.75;;;;;;;40.08;19.22;99027.03;4921966;28;42228;-75
2023/06/12 08:40:21;;;;;;;5.30;4.95;;;;;;;39.78;19.28;99026.03;4921846;28;40114;-75
2023/06/12 08:42:51;;;;;;;5.30;4.90;;;;;;;39.37;19.39;99014.16;4938231;28;42774;-76
2023/06/12 08:45:20;;;;;;;5.75;4.53;;;;;;;38.95;19.76;98999.78;4937627;28;43867;-76
2023/06/12 08:47:49;;;;;;;5.35;4.93;;;;;;;38.68;19.73;99000.88;4921984;28;41256;-76
2023/06/12 08:50:18;;;;;;;7.43;5.28;;;;;;;38.16;21.38;98980.81;4954994;28;40867;-75
2023/06/12 08:52:46;;;;;;;5.43;4.82;;;;;;;37.82;21.20;99003.34;4938153;28;41931;-76
2023/06/12 08:55:15;;;;;;;5.45;4.95;;;;;;;37.55;20.49;99005.34;4937873;28;43746;-76
2023/06/12 08:57:45;;;;;;;5.70;5.20;;;;;;;37.03;21.43;98995.03;4955149;28;44005;-76
2023/06/12 09:00:15;;;;;;;7.93;5.72;;;;;;;36.32;20.60;99008.13;4937706;28;40562;-76
2023/06/12 09:02:46;;;;;;;5.77;5.27;;;;;;;35.47;21.97;98965.41;4953285;28;43155;-77
2023/06/12 09:05:17;;;;;;;6.37;5.80;;;;;;;35.41;21.96;98993.94;4936767;28;42064;-76
2023/06/12 09:07:46;;;;;;;5.63;5.07;;;;;;;35.76;22.51;98987.28;4933917;28;42327;-76
2023/06/12 09:10:15;;;;;;;5.73;5.30;;;;;;;35.91;21.31;98991.06;4920834;28;40284;-76
2023/06/12 09:12:45;;;;;;;6.33;5.73;;;;;;;35.63;21.60;98985.69;4936176;28;41932;-76
2023/06/12 09:15:17;;;;;;;5.60;5.20;;;;;;;35.49;21.94;98996.25;4920329;28;41741;-76
2023/06/12 09:17:48;;;;;;;5.83;5.33;;;;;;;35.61;21.53;98990.63;4936698;28;40921;-77
2023/06/12 09:20:24;;;;;;;5.40;4.87;;;;;;;35.80;20.29;99000.31;4953858;28;39972;-77
2023/06/12 09:22:52;;;;;;;6.90;4.73;;;;;;;35.42;20.26;98983.75;4951020;28;41725;-76
2023/06/12 09:25:20;;;;;;;5.73;4.50;;;;;;;35.29;21.37;98999.56;4953642;28;43808;-77
2023/06/12 09:27:50;;;;;;;5.40;4.90;;;;;;;35.67;21.06;99000.66;4936700;28;42132;-76
2023/06/12 09:30:18;;;;;;;5.33;4.83;;;;;;;35.69;20.53;99006.75;4936117;28;39466;-76
2023/06/12 09:32:46;;;;;;;6.03;4.90;;;;;;;36.03;21.24;98998.38;4954345;28;41927;-76
2023/06/12 09:35:14;;;;;;;5.40;5.00;;;;;;;36.60;20.91;98999.56;4921498;28;42061;-76
2023/06/12 09:37:42;;;;;;;6.50;6.00;;;;;;;37.44;19.27;99015.53;4937233;28;42349;-76
2023/06/12 09:40:12;;;;;;;5.60;5.20;;;;;;;37.89;19.49;99003.91;4937032;28;39538;-77
2023/06/12 09:42:40;;;;;;;6.10;5.60;;;;;;;38.34;18.50;99013.47;4937131;28;41929;-76
2023/06/12 09:45:13;;;;;;;5.40;4.95;;;;;;;39.18;18.35;99012.25;4920853;28;43165;-76
2023/06/12 09:47:46;;;;;;;7.88;5.47;;;;;;;40.18;16.92;99019.50;4951594;28;42972;-76
2023/06/12 09:50:15;;;;;;;5.75;5.25;;;;;;;40.83;17.15;99011.94;4950671;28;40765;-76
2023/06/12 09:52:44;;;;;;;7.28;5.50;;;;;;;41.54;16.88;99016.91;4937115;28;41670;-76
2023/06/12 09:55:13;;;;;;;5.68;5.18;;;;;;;41.95;16.06;99022.00;4936925;28;43699;-76
2023/06/12 09:57:44;;;;;;;5.47;5.00;;;;;;;42.04;16.92;99003.53;4921123;28;43593;-76
2023/06/12 10:00:16;;;;;;;5.70;5.07;;;;;;;42.67;17.10;99008.78;4936948;28;39860;-77
2023/06/12 10:02:51;;;;;;;5.32;4.93;;;;;;;42.48;16.89;98988.47;4934851;28;41739;-76
2023/06/12 10:05:22;;;;;;;5.60;5.10;;;;;;;42.19;16.87;98997.75;4919912;28;43120;-77
2023/06/12 10:07:53;;;;;;;6.90;5.45;;;;;;;41.20;17.38;98991.06;4935895;28;41541;-76
2023/06/12 10:10:22;;;;;;;5.80;5.20;;;;;;;40.31;18.35;98976.44;4935586;28;39982;-76
2023/06/12 10:12:51;;;;;;;5.93;5.43;;;;;;;39.71;19.07;98974.72;4935962;28;40810;-76
2023/06/12 10:15:22;;;;;;;5.63;5.15;;;;;;;39.11;19.45;98970.97;4935778;28;42748;-76
2023/06/12 10:17:52;;;;;;;5.20;4.80;;;;;;;38.53;19.99;98958.47;4933087;28;43292;-76
2023/06/12 10:20:20;;;;;;;5.38;4.97;;;;;;;38.12;20.42;98957.53;4935582;28;38515;-77
2023/06/12 10:22:48;;;;;;;5.50;5.00;;;;;;;37.65;20.54;98955.69;4952992;28;41978;-77
2023/06/12 10:25:17;;;;;;;5.50;5.10;;;;;;;37.20;20.84;98940.50;4919554;28;41798;-77
2023/06/12 10:27:45;;;;;;;5.50;5.10;;;;;;;36.95;21.15;98948.59;4935634;28;41549;-76
2023/06/12 10:30:14;;;;;;;6.00;5.60;;;;;;;36.68;23.06;98923.78;4919218;28;40036;-77
2023/06/12 10:32:44;;;;;;;5.83;5.23;;;;;;;36.76;22.15;98944.56;4935861;28;41733;-76
2023/06/12 10:35:12;;;;;;;7.47;4.93;;;;;;;36.74;20.94;98963.31;4935797;28;42188;-76
2023/06/12 10:37:43;;;;;;;6.00;5.50;;;;;;;36.80;21.06;98945.69;4936453;28;42376;-76
2023/06/12 10:40:15;;;;;;;5.47;5.07;;;;;;;36.63;21.78;98935.59;4936476;28;39614;-76
2023/06/12 10:42:47;;;;;;;5.40;4.90;;;;;;;36.26;22.28;98934.69;4920775;28;40631;-76
2023/06/12 10:45:17;;;;;;;5.57;5.07;;;;;;;36.12;21.71;98933.41;4918976;28;42260;-76
2023/06/12 10:50:43;;;;;;;7.43;5.40;;;;;;;36.24;22.13;98925.84;5108800;28;20564;-76
2023/06/12 10:53:13;;;;;;;6.10;5.50;;;;;;;36.05;21.89;98921.75;5124888;27;39117;-77
2023/06/12 10:55:42;;;;;;;6.47;5.50;;;;;;;35.79;22.26;98928.91;5108744;28;42735;-76
2023/06/12 10:58:14;;;;;;;5.93;5.33;;;;;;;35.69;22.63;98921.31;5090219;28;41769;-74
2023/06/12 11:00:47;;;;;;;5.60;5.20;;;;;;;35.69;21.96;98934.25;5141624;27;42968;-75
2023/06/12 11:03:16;;;;;;;6.33;5.73;;;;;;;35.46;22.83;98932.59;5107650;28;40166;-75
2023/06/12 11:05:51;;;;;;;7.03;5.37;;;;;;;35.45;23.24;98911.63;5123426;27;42116;-75
2023/06/12 11:08:20;;;;;;;6.20;5.60;;;;;;;35.45;22.77;98906.13;5106211;28;42142;-76
2023/06/12 11:10:48;;;;;;;7.67;5.90;;;;;;;35.52;22.16;98913.09;5106906;28;42091;-75
2023/06/12 11:13:15;;;;;;;5.80;5.30;;;;;;;35.35;22.93;98878.47;5089207;28;38940;-76
2023/06/12 11:15:44;;;;;;;5.63;5.13;;;;;;;35.19;23.20;98911.25;5106445;28;41730;-75
2023/06/12 11:18:14;;;;;;;6.30;5.70;;;;;;;35.14;22.37;98916.69;5106216;28;43021;-75
2023/06/12 11:20:42;;;;;;;6.40;5.00;;;;;;;35.40;22.03;98922.56;5107160;28;41945;-76
2023/06/12 11:23:11;;;;;;;5.37;4.90;;;;;;;35.51;23.33;98889.41;5106083;28;40033;-75
2023/06/12 11:25:43;;;;;;;5.30;4.90;;;;;;;35.95;22.40;98895.75;5089176;28;41520;-76
2023/06/12 11:28:12;;;;;;;5.83;5.43;;;;;;;36.10;21.78;98908.03;5104280;28;43763;-76
2023/06/12 11:30:41;;;;;;;5.87;5.37;;;;;;;36.22;21.68;98900.47;5107164;28;42352;-76
2023/06/12 11:33:10;;;;;;;4.93;4.53;;;;;;;36.37;21.90;98889.53;5089565;28;39350;-76
2023/06/12 11:35:41;;;;;;;5.77;5.27;;;;;;;36.66;21.98;98882.63;5108045;28;43275;-76
2023/06/12 11:38:13;;;;;;;6.27;5.77;;;;;;;37.06;22.05;98892.31;5107895;28;42783;-76
2023/06/12 11:40:42;;;;;;;5.13;4.73;;;;;;;37.07;20.94;98906.97;5107010;28;42256;-75
2023/06/12 11:43:10;;;;;;;6.07;4.90;;;;;;;36.45;20.76;98891.84;5106712;28;39554;-75
2023/06/12 11:45:41;;;;;;;5.37;4.87;;;;;;;36.55;20.73;98905.72;5107958;28;41797;-76
2023/06/12 11:48:14;;;;;;;5.50;5.10;;;;;;;36.94;21.50;98897.22;5137928;27;42823;-76
2023/06/12 11:50:42;;;;;;;5.38;4.97;;;;;;;37.54;21.22;98890.38;5103536;28;42289;-76
2023/06/12 11:53:13;;;;;;;5.25;4.80;;;;;;;38.68;20.36;98884.59;5106548;28;39939;-76
2023/06/12 11:55:40;;;;;;;5.75;5.25;;;;;;;38.45;19.42;98902.53;5123852;27;40871;-76
2023/06/12 11:58:08;;;;;;;5.77;5.07;;;;;;;37.49;19.45;98893.13;5123679;27;42776;-76
2023/06/12 12:00:39;;;;;;;5.20;4.70;;;;;;;36.82;20.32;98893.81;5101503;28;42235;-76
2023/06/12 12:03:09;;;;;;;5.07;4.68;;;;;;;37.23;20.04;98884.69;5091104;28;39358;-75
2023/06/12 12:05:39;;;;;;;5.30;4.80;;;;;;;37.77;19.90;98892.72;5074624;28;41895;-76
2023/06/12 12:08:08;;;;;;;6.32;4.88;;;;;;;38.96;19.46;98882.31;5074612;28;41401;-78
2023/06/12 12:10:41;;;;;;;4.68;4.28;;;;;;;39.86;17.86;98905.38;5091451;28;42962;-76
2023/06/12 12:13:09;;;;;;;6.63;4.72;;;;;;;40.67;16.25;98909.56;5108468;28;40154;-77
2023/06/12 12:15:40;;;;;;;5.30;4.68;;;;;;;41.90;15.46;98899.63;5108477;28;40600;-76
2023/06/12 12:18:12;;;;;;;5.13;4.47;;;;;;;43.39;15.45;98900.53;5091694;28;43380;-76
2023/06/12 12:20:40;;;;;;;4.50;4.10;;;;;;;44.45;14.96;98885.38;5074186;28;42152;-76
2023/06/12 12:23:12;;;;;;;4.88;4.38;;;;;;;45.13;13.75;98906.56;5091490;28;39891;-76
2023/06/12 12:25:41;;;;;;;5.53;4.30;;;;;;;45.39;13.39;98915.91;5088317;28;42733;-76
2023/06/12 12:28:09;;;;;;;5.00;4.00;;;;;;;45.79;12.60;98922.31;5091263;28;42813;-77
2023/06/12 12:30:37;;;;;;;4.70;3.85;;;;;;;46.17;12.00;98919.75;5092516;28;42308;-76
2023/06/12 12:33:05;;;;;;;4.40;3.90;;;;;;;46.66;11.63;98921.28;5126237;27;41356;-76
2023/06/12 12:35:33;;;;;;;4.22;3.90;;;;;;;47.11;12.22;98899.25;5091927;28;41828;-76
2023/06/12 12:38:03;;;;;;;4.10;3.80;;;;;;;47.60;11.63;98896.94;5092099;28;42568;-76
2023/06/12 12:40:31;;;;;;;4.07;3.78;;;;;;;47.88;11.21;98909.31;5075094;28;40633;-76
2023/06/12 12:43:00;;;;;;;3.72;3.42;;;;;;;47.77;10.52;98905.25;5075403;28;39221;-75
2023/06/12 12:45:28;;;;;;;4.25;3.85;;;;;;;47.83;11.42;98908.72;5091886;28;41946;-76
2023/06/12 12:47:56;;;;;;;4.30;3.90;;;;;;;48.03;11.07;98907.06;5092024;28;43790;-76
2023/06/12 12:50:23;;;;;;;3.88;3.47;;;;;;;48.13;10.80;98885.03;5107133;28;41298;-76
2023/06/12 12:52:51;;;;;;;3.88;3.50;;;;;;;48.46;11.11;98887.94;5107532;28;39603;-76
2023/06/12 12:55:19;;;;;;;4.10;3.80;;;;;;;48.60;10.79;98896.03;5091953;28;42533;-77
2023/06/12 12:57:47;;;;;;;4.40;4.00;;;;;;;48.73;10.90;98885.66;5107715;28;41999;-76
2023/06/12 13:00:19;;;;;;;4.30;4.00;;;;;;;48.93;11.14;98884.81;5092121;28;42322;-76
2023/06/12 13:02:47;;;;;;;4.45;4.07;;;;;;;49.31;10.71;98883.72;5089367;28;39857;-76
2023/06/12 13:05:16;;;;;;;4.43;4.03;;;;;;;49.16;10.54;98888.88;5090327;28;41820;-76
2023/06/12 13:07:45;;;;;;;4.10;3.80;;;;;;;49.05;11.45;98869.94;5073730;28;41589;-77
2023/06/12 13:10:14;;;;;;;5.30;4.03;;;;;;;49.06;10.78;98866.78;5073442;28;42171;-77
2023/06/12 13:12:44;;;;;;;5.43;4.43;;;;;;;49.18;10.83;98871.63;5089605;28;39959;-76
2023/06/12 13:15:12;;;;;;;4.30;3.80;;;;;;;49.14;11.04;98863.03;5090441;28;42698;-76
2023/06/12 13:17:41;;;;;;;4.15;3.85;;;;;;;49.15;11.17;98870.31;5107495;28;41778;-77
2023/06/12 13:20:09;;;;;;;4.43;3.95;;;;;;;48.02;10.90;98874.53;5090150;28;41532;-77
2023/06/12 13:22:37;;;;;;;5.18;4.68;;;;;;;46.97;12.04;98859.38;5090568;28;40954;-77
2023/06/12 13:25:06;;;;;;;4.65;4.20;;;;;;;47.07;12.26;98849.78;5124413;27;42663;-76
2023/06/12 13:27:34;;;;;;;6.65;4.50;;;;;;;47.36;12.33;98855.41;5090392;28;43391;-77
2023/06/12 13:30:02;;;;;;;4.78;4.38;;;;;;;47.03;10.90;98866.47;5073583;28;41163;-76
2023/06/12 13:32:33;;;;;;;4.60;4.20;;;;;;;46.55;11.30;98852.69;5090889;28;39658;-76
2023/06/12 13:35:02;;;;;;;4.53;4.13;;;;;;;46.14;11.42;98858.78;5090963;28;41866;-76
2023/06/12 13:37:29;;;;;;;4.50;4.13;;;;;;;45.67;11.53;98849.34;5092296;28;42839;-75
2023/06/12 13:39:57;;;;;;;4.05;3.65;;;;;;;46.12;12.72;98821.91;5091042;28;41346;-76
2023/06/12 13:42:25;;;;;;;4.22;3.92;;;;;;;46.83;11.44;98836.34;5091218;28;39640;-76
2023/06/12 13:44:53;;;;;;;4.72;4.35;;;;;;;47.30;11.46;98844.72;5090801;28;40626;-76
2023/06/12 13:47:21;;;;;;;4.70;4.38;;;;;;;47.43;11.19;98838.09;5091009;28;43648;-76
2023/06/12 13:49:48;;;;;;;4.57;4.15;;;;;;;46.82;11.69;98834.69;5090566;28;43101;-76
2023/06/12 13:52:18;;;;;;;3.78;3.58;;;;;;;46.37;12.24;98846.28;5090993;28;38874;-76
2023/06/12 13:54:46;;;;;;;4.20;3.90;;;;;;;46.44;12.28;98835.41;5073753;28;41782;-76
2023/06/12 13:57:14;;;;;;;4.63;3.75;;;;;;;46.67;11.67;98841.66;5090943;28;42720;-76
2023/06/12 13:59:42;;;;;;;5.20;4.20;;;;;;;46.65;11.69;98840.34;5073862;28;41121;-76
2023/06/12 14:02:10;;;;;;;4.60;4.18;;;;;;;46.74;11.32;98838.34;5089040;28;38412;-75
2023/06/12 14:04:37;;;;;;;4.68;4.25;;;;;;;46.97;10.87;98839.75;5123742;27;41506;-76
2023/06/12 14:07:11;;;;;;;4.15;3.42;;;;;;;47.19;11.16;98842.31;5090993;28;42797;-77
2023/06/12 14:09:41;;;;;;;4.45;3.50;;;;;;;47.21;10.87;98841.16;5072660;28;41890;-76
2023/06/12 14:12:10;;;;;;;4.45;3.72;;;;;;;47.11;11.26;98829.13;5124084;27;41097;-76
2023/06/12 14:14:38;;;;;;;4.07;3.78;;;;;;;46.92;11.30;98828.69;5090856;28;41650;-76
2023/06/12 14:17:10;;;;;;;5.57;4.90;;;;;;;46.52;11.81;98830.09;5089555;28;43013;-76
2023/06/12 14:19:37;;;;;;;4.40;4.10;;;;;;;46.19;11.25;98839.03;5072809;28;41889;-76
2023/06/12 14:22:05;;;;;;;4.45;3.75;;;;;;;45.60;11.67;98807.88;5089526;28;40414;-76
2023/06/12 14:24:32;;;;;;;5.13;4.32;;;;;;;45.58;12.00;98823.34;5088978;28;42038;-76
2023/06/12 14:27:02;;;;;;;4.75;4.18;;;;;;;45.14;11.94;98786.00;5072876;28;41852;-76
2023/06/12 14:29:30;;;;;;;5.20;3.97;;;;;;;45.35;11.77;98817.00;5090525;28;43649;-76
2023/06/12 14:32:00;;;;;;;4.47;4.18;;;;;;;45.06;12.57;98812.78;5072848;28;39228;-76
2023/06/12 14:34:28;;;;;;;4.93;4.45;;;;;;;44.82;13.23;98795.56;5073022;28;41884;-76
2023/06/12 14:36:55;;;;;;;5.35;3.95;;;;;;;44.34;13.55;98792.63;5073438;28;41383;-76
2023/06/12 14:39:23;;;;;;;4.13;3.83;;;;;;;42.92;13.46;98802.19;5091535;28;42467;-76
2023/06/12 14:41:51;;;;;;;5.13;4.60;;;;;;;41.80;14.26;98783.75;5107751;28;38317;-76
2023/06/12 14:44:20;;;;;;;4.88;4.45;;;;;;;41.29;15.03;98783.63;5090137;28;41456;-76
2023/06/12 14:46:48;;;;;;;4.82;4.25;;;;;;;40.87;15.17;98782.44;5090111;28;41500;-76
2023/06/12 14:49:16;;;;;;;5.10;4.70;;;;;;;40.50;15.31;98782.25;5089110;28;42170;-75
2023/06/12 14:51:43;;;;;;;4.57;4.28;;;;;;;40.26;15.67;98784.13;5089867;28;39190;-75
2023/06/12 14:54:11;;;;;;;4.40;4.10;;;;;;;39.95;15.80;98778.00;5091046;28;42726;-75
2023/06/12 14:56:39;;;;;;;4.00;3.70;;;;;;;39.70;15.86;98763.16;5107187;28;42244;-76
2023/06/12 14:59:06;;;;;;;4.28;3.97;;;;;;;39.47;16.05;98758.31;5124160;27;42685;-76
2023/06/12 15:01:36;;;;;;;5.07;4.35;;;;;;;39.09;16.38;98762.66;5071942;28;40281;-76
2023/06/12 15:04:03;;;;;;;4.63;4.13;;;;;;;38.86;16.90;98758.56;5088526;28;40359;-76
2023/06/12 15:06:31;;;;;;;5.57;4.75;;;;;;;38.62;16.84;98763.88;5088837;28;41860;-76
2023/06/12 15:09:01;;;;;;;6.82;4.53;;;;;;;37.87;16.77;98765.53;5088884;28;43834;-75
2023/06/12 15:11:29;;;;;;;4.88;4.47;;;;;;;37.80;17.08;98756.69;5089029;28;39287;-75
2023/06/12 15:13:57;;;;;;;4.90;4.50;;;;;;;37.73;17.15;98761.66;5088798;28;41452;-77
2023/06/12 15:16:24;;;;;;;4.60;4.30;;;;;;;37.59;17.15;98754.97;5123379;27;42699;-75
2023/06/12 15:18:53;;;;;;;4.60;4.30;;;;;;;37.68;17.48;98742.31;5088798;28;42760;-76
2023/06/12 15:21:21;;;;;;;4.55;4.15;;;;;;;37.79;17.93;98743.97;5072257;28;38885;-77
2023/06/12 15:23:48;;;;;;;4.40;4.03;;;;;;;37.82;17.87;98748.97;5090204;28;41916;-75
2023/06/12 15:26:16;;;;;;;5.20;4.67;;;;;;;37.36;17.70;98728.66;5123270;27;42841;-76
2023/06/12 15:28:43;;;;;;;4.93;4.30;;;;;;;36.96;18.79;98748.69;5088823;28;42991;-76
2023/06/12 15:31:11;;;;;;;4.53;4.10;;;;;;;36.71;18.66;98743.03;5123135;27;40153;-75